Time;durP1;ratioP1;P1;durP2;ratioP2;P2;SDS_P1;SDS_P2;PMS_P1;PMS_P2;Temp;Humidity;BMP_temperature;BMP_pressure;BME280_temperature;BME280_humidity;BME280_pressure;Samples;Min_cycle;Max_cycle;Signal;HPM_P1;HPM_P2
2022/10/04 05:24:35;;;;;;;;;34.75;33.25;;;;;11.73;79.77;101757.84;5133591;27;45451;-60
2022/10/04 05:27:07;;;;;;;;;28.75;26.25;;;;;11.89;79.19;101760.03;5116682;27;45414;-59
2022/10/04 05:29:43;;;;;;;;;28.75;26.25;;;;;11.92;78.61;101758.09;5116365;27;45458;-59
2022/10/04 05:32:32;;;;;;;;;34.25;30.25;;;;;11.95;78.87;101751.75;5113157;27;45362;-58
2022/10/04 05:34:58;;;;;;;;;23.25;23.25;;;;;11.92;78.80;101735.72;5116438;27;45536;-60
2022/10/04 05:37:52;;;;;;;;;23.50;21.50;;;;;11.99;78.67;101740.81;5116073;27;45400;-59
2022/10/04 05:40:45;;;;;;;;;28.50;25.00;;;;;12.03;78.28;101742.47;5116382;27;45361;-59
2022/10/04 05:43:23;;;;;;;;;26.00;26.00;;;;;11.97;77.85;101729.25;5115998;27;45651;-59
2022/10/04 05:46:17;;;;;;;;;30.00;27.75;;;;;12.06;77.75;101744.19;5116378;27;46421;-60
2022/10/04 05:48:44;;;;;;;;;27.75;22.25;;;;;12.02;77.69;101742.50;5106493;27;45321;-61
2022/10/04 05:51:22;;;;;;;;;24.00;22.00;;;;;12.08;77.61;101751.22;5116207;27;45520;-60
2022/10/04 05:53:48;;;;;;;;;23.50;23.50;;;;;11.97;77.54;101720.31;5116012;27;45453;-60
2022/10/04 05:56:17;;;;;;;;;24.50;24.50;;;;;12.15;77.70;101751.91;5116123;27;45431;-60
2022/10/04 05:59:20;;;;;;;;;31.75;28.50;;;;;12.21;77.62;101742.72;5115937;27;45311;-60
2022/10/04 06:01:51;;;;;;;;;29.75;25.00;;;;;12.20;77.38;101733.78;5115933;27;45231;-60
2022/10/04 06:04:33;;;;;;;;;28.50;26.00;;;;;12.30;77.03;101739.72;5115919;27;45489;-62
2022/10/04 06:07:03;;;;;;;;;27.75;26.75;;;;;12.31;77.01;101736.97;5116024;27;45375;-60
2022/10/04 06:09:50;;;;;;;;;26.50;25.50;;;;;12.33;77.10;101731.53;5115914;27;45251;-67
2022/10/04 06:12:47;;;;;;;;;27.50;24.75;;;;;12.26;76.10;101722.81;5115823;27;45423;-69
2022/10/04 06:15:46;;;;;;;;;31.00;30.00;;;;;12.38;76.48;101743.88;5115542;27;45705;-70
2022/10/04 06:18:29;;;;;;;;;27.50;25.25;;;;;12.41;76.21;101740.19;5115368;27;46329;-66
2022/10/04 06:21:13;;;;;;;;;26.75;23.00;;;;;12.42;76.12;101732.03;5115066;27;45335;-67
2022/10/04 06:23:52;;;;;;;;;27.00;24.00;;;;;12.38;76.05;101721.47;5099924;27;45315;-67
2022/10/04 06:26:23;;;;;;;;;27.25;26.00;;;;;12.41;75.52;101735.69;5101748;27;45335;-68
2022/10/04 06:28:55;;;;;;;;;29.00;27.75;;;;;12.46;75.69;101743.56;5101460;27;45358;-68
2022/10/04 06:31:21;;;;;;;;;27.50;25.75;;;;;12.48;75.70;101752.47;5101757;27;45451;-69
2022/10/04 06:34:18;;;;;;;;;27.75;27.25;;;;;12.48;75.65;101760.53;5101751;27;45231;-69
2022/10/04 06:36:59;;;;;;;;;31.00;29.50;;;;;12.46;75.22;101754.34;5090369;27;46133;-69
2022/10/04 06:39:52;;;;;;;;;33.25;28.75;;;;;12.50;75.34;101756.84;5087964;27;46155;-69
2022/10/04 06:42:36;;;;;;;;;29.50;25.50;;;;;12.51;75.06;101769.34;5100824;27;45409;-69
2022/10/04 06:45:28;;;;;;;;;26.25;24.25;;;;;12.51;75.30;101771.16;5100461;27;45332;-68
2022/10/04 06:48:18;;;;;;;;;33.00;26.75;;;;;12.50;75.00;101764.91;5101564;27;45405;-69
2022/10/04 06:51:08;;;;;;;;;22.00;20.50;;;;;12.50;74.75;101759.53;5101268;27;45284;-69
2022/10/04 06:53:47;;;;;;;;;27.00;25.25;;;;;12.48;74.57;101760.53;5101359;27;45480;-69
2022/10/04 06:56:28;;;;;;;;;29.75;27.50;;;;;12.42;75.00;101750.00;5101818;27;45317;-69
2022/10/04 06:59:33;;;;;;;;;26.75;24.75;;;;;12.44;74.33;101761.56;5101244;27;45438;-69
2022/10/04 07:02:05;;;;;;;;;25.00;25.00;;;;;12.36;74.07;101748.41;5101238;27;47136;-69
2022/10/04 07:04:37;;;;;;;;;22.75;22.75;;;;;12.40;74.17;101765.34;5101406;27;45379;-70
2022/10/04 07:07:46;;;;;;;;;30.25;27.75;;;;;12.36;74.36;101760.97;5101546;27;45397;-69
2022/10/04 07:10:34;;;;;;;;;29.50;25.75;;;;;12.31;74.20;101762.97;5100844;27;45349;-69
2022/10/04 07:13:11;;;;;;;;;28.75;28.25;;;;;12.24;74.63;101762.34;5061511;27;45512;-69
2022/10/04 07:15:59;;;;;;;;;31.50;27.00;;;;;12.21;74.45;101767.81;5101034;27;45397;-69
2022/10/04 07:18:34;;;;;;;;;32.75;29.50;;;;;12.19;74.65;101777.72;5054559;27;45381;-69
2022/10/04 07:21:17;;;;;;;;;34.50;29.00;;;;;12.16;74.44;101771.59;5101293;27;45359;-68
2022/10/04 07:23:50;;;;;;;;;34.00;32.25;;;;;12.06;75.24;101773.75;5088183;27;45381;-70
2022/10/04 07:26:37;;;;;;;;;32.00;26.75;;;;;12.00;75.75;101766.75;5101243;27;45489;-69
2022/10/04 07:29:20;;;;;;;;;28.75;25.75;;;;;12.00;75.66;101765.88;5101186;27;45374;-69
2022/10/04 07:31:50;;;;;;;;;31.75;29.75;;;;;12.00;75.87;101771.25;5100839;27;45478;-69
2022/10/04 07:34:24;;;;;;;;;31.50;30.00;;;;;12.01;75.43;101768.50;5100950;27;45494;-69
2022/10/04 07:36:53;;;;;;;;;36.50;31.75;;;;;12.02;76.05;101769.41;5080738;27;45271;-69
2022/10/04 07:39:32;;;;;;;;;35.00;31.50;;;;;12.04;75.99;101764.84;5101051;27;45516;-68
2022/10/04 07:42:13;;;;;;;;;36.00;33.25;;;;;12.04;75.98;101773.78;5100796;27;45343;-69
2022/10/04 07:44:53;;;;;;;;;33.75;31.75;;;;;12.05;75.88;101761.22;5100386;27;47039;-69
2022/10/04 07:47:26;;;;;;;;;33.50;29.25;;;;;12.16;75.91;101775.19;5100829;27;45164;-69
2022/10/04 07:49:53;;;;;;;;;34.75;33.00;;;;;12.24;75.93;101780.28;5101098;27;45335;-68
2022/10/04 07:52:35;;;;;;;;;32.50;27.75;;;;;12.32;75.34;101773.69;5100535;27;45448;-69
2022/10/04 07:55:12;;;;;;;;;33.75;31.50;;;;;12.35;75.36;101773.56;5100666;27;46266;-68
2022/10/04 07:57:46;;;;;;;;;33.75;28.50;;;;;12.40;75.17;101776.09;5100193;27;45380;-69
2022/10/04 08:00:14;;;;;;;;;34.25;32.75;;;;;12.45;75.32;101768.72;5099463;27;45396;-68
2022/10/04 08:03:03;;;;;;;;;32.75;31.00;;;;;12.49;75.18;101773.94;5100551;27;45323;-69
2022/10/04 08:05:57;;;;;;;;;30.25;29.75;;;;;12.54;75.25;101768.38;5100418;27;46172;-69
2022/10/04 08:08:49;;;;;;;;;39.25;31.25;;;;;12.59;75.24;101765.53;5100416;27;45267;-69
2022/10/04 08:11:30;;;;;;;;;32.75;31.25;;;;;12.65;74.71;101754.53;5100635;27;45342;-69
2022/10/04 08:14:10;;;;;;;;;31.75;29.00;;;;;12.72;74.95;101756.03;5086876;27;45496;-69
2022/10/04 08:16:35;;;;;;;;;30.00;28.50;;;;;12.79;75.00;101762.94;5100388;27;46273;-69
2022/10/04 08:19:29;;;;;;;;;40.25;35.00;;;;;12.83;74.10;101757.38;5100241;27;45282;-69
2022/10/04 08:22:16;;;;;;;;;32.50;29.00;;;;;12.83;74.42;101753.81;5054073;27;45457;-68
2022/10/04 08:24:57;;;;;;;;;32.00;29.75;;;;;12.88;74.08;101760.75;5100327;27;45237;-68
2022/10/04 08:30:50;;;;;;;;;35.75;32.25;;;;;12.95;74.21;101756.00;5100177;27;45336;-69
2022/10/04 08:33:48;;;;;;;;;33.50;30.75;;;;;12.97;74.00;101762.22;5100194;27;45330;-68
2022/10/04 08:36:23;;;;;;;;;33.50;31.50;;;;;12.95;74.14;101765.88;5092035;27;45343;-67
2022/10/04 08:39:05;;;;;;;;;34.00;27.25;;;;;12.99;74.07;101779.19;5100051;27;45382;-69
2022/10/04 08:41:52;;;;;;;;;29.75;26.50;;;;;12.95;74.09;101769.47;5099943;27;45344;-70
2022/10/04 08:44:22;;;;;;;;;33.00;31.25;;;;;13.05;73.79;101781.63;5099889;27;45299;-68
2022/10/04 08:47:05;;;;;;;;;34.50;31.75;;;;;13.08;74.26;101788.72;5099088;27;45469;-70
2022/10/04 08:49:58;;;;;;;;;34.50;30.50;;;;;13.14;74.26;101788.50;5099601;27;45411;-70
2022/10/04 08:52:57;;;;;;;;;33.00;32.25;;;;;13.24;74.00;101792.56;5099741;27;45506;-70
2022/10/04 08:55:57;;;;;;;;;36.50;32.75;;;;;13.32;74.20;101793.16;5099977;27;45390;-69
2022/10/04 08:59:05;;;;;;;;;42.75;34.50;;;;;13.43;73.38;101792.72;5099524;27;45287;-70
2022/10/04 09:01:55;;;;;;;;;37.75;34.25;;;;;13.51;73.72;101798.66;5098667;27;45408;-69
2022/10/04 09:04:21;;;;;;;;;36.50;33.50;;;;;13.55;73.63;101795.75;5099563;27;45459;-69
2022/10/04 09:07:17;;;;;;;;;37.50;33.25;;;;;13.61;72.97;101784.72;5099795;27;45350;-69
2022/10/04 09:10:32;;;;;;;;;36.50;34.25;;;;;13.66;73.31;101787.25;5099679;27;45337;-69
2022/10/04 09:13:16;;;;;;;;;41.50;36.50;;;;;13.79;73.13;101795.66;5087702;27;45347;-69
2022/10/04 09:15:47;;;;;;;;;38.50;34.50;;;;;13.88;72.65;101787.19;5099385;27;45232;-70
2022/10/04 09:18:20;;;;;;;;;41.50;36.00;;;;;13.95;72.72;101792.25;5099669;27;45392;-69
2022/10/04 09:21:00;;;;;;;;;37.75;35.00;;;;;14.02;72.88;101795.56;5099348;27;45323;-70
2022/10/04 09:23:28;;;;;;;;;34.75;34.25;;;;;14.10;72.51;101795.25;5093981;27;46656;-69
2022/10/04 09:26:22;;;;;;;;;47.00;38.50;;;;;14.17;72.11;101794.03;5099408;27;45284;-68
2022/10/04 09:28:56;;;;;;;;;28.25;23.50;;;;;14.21;72.45;101798.31;5097765;27;45328;-70
2022/10/04 09:31:47;;;;;;;;;42.00;36.00;;;;;14.29;72.27;101791.66;5099247;27;45210;-68
2022/10/04 09:34:49;;;;;;;;;37.75;34.50;;;;;14.37;72.35;101792.16;5098397;27;45477;-68
2022/10/04 09:37:31;;;;;;;;;44.50;36.50;;;;;14.34;71.69;101769.88;5099426;27;45483;-69
2022/10/04 09:40:34;;;;;;;;;39.75;33.25;;;;;14.51;71.40;101766.44;5080972;27;45360;-68
2022/10/04 09:43:21;;;;;;;;;35.25;31.00;;;;;14.58;71.81;101762.50;5098788;27;45324;-68
2022/10/04 09:45:53;;;;;;;;;37.75;32.50;;;;;14.63;71.42;101764.03;5099089;27;47175;-68
2022/10/04 09:48:52;;;;;;;;;32.00;31.25;;;;;14.67;71.04;101754.00;5098929;27;45396;-69
2022/10/04 09:51:44;;;;;;;;;37.75;33.50;;;;;14.74;70.77;101758.16;5093261;27;45192;-68
2022/10/04 09:54:36;;;;;;;;;42.00;34.00;;;;;14.79;70.74;101757.94;5099099;27;45362;-69
2022/10/04 09:57:28;;;;;;;;;33.75;32.25;;;;;14.86;70.48;101770.19;5098186;27;46282;-68
2022/10/04 10:00:26;;;;;;;;;36.75;33.00;;;;;14.90;70.78;101767.25;5101110;27;45292;-69
2022/10/04 10:03:20;;;;;;;;;34.00;32.00;;;;;14.98;70.79;101767.78;5084425;27;45331;-68
2022/10/04 10:06:15;;;;;;;;;27.50;26.25;;;;;15.06;70.60;101767.41;5102494;27;45442;-69
2022/10/04 10:09:12;;;;;;;;;27.75;27.75;;;;;15.12;69.77;101761.72;5102414;27;45421;-67
2022/10/04 10:14:34;;;;;;;;;26.25;25.00;;;;;15.23;69.93;101755.78;5102373;27;45280;-68
2022/10/04 10:17:16;;;;;;;;;29.50;27.75;;;;;15.27;69.84;101758.28;5102389;27;45590;-70
2022/10/04 10:20:00;;;;;;;;;24.25;24.00;;;;;15.33;70.29;101744.44;5102059;27;45397;-68
2022/10/04 10:22:44;;;;;;;;;32.50;27.75;;;;;15.40;69.70;101735.06;5101848;27;45556;-69
2022/10/04 10:25:24;;;;;;;;;33.50;29.25;;;;;15.46;69.63;101740.19;5083212;27;45473;-69
2022/10/04 10:28:10;;;;;;;;;23.50;23.50;;;;;15.51;70.24;101734.53;5101919;27;45473;-69
2022/10/04 10:31:04;;;;;;;;;35.25;31.50;;;;;15.57;69.98;101728.00;5102072;27;45378;-69
2022/10/04 10:33:56;;;;;;;;;29.75;27.00;;;;;15.62;69.72;101731.34;5101743;27;45265;-68
2022/10/04 10:37:03;;;;;;;;;42.00;32.50;;;;;15.66;68.95;101714.88;5045289;27;45437;-69
2022/10/04 10:40:16;;;;;;;;;27.50;27.50;;;;;15.70;68.98;101713.78;5101994;27;45310;-70
2022/10/04 10:42:42;;;;;;;;;30.00;28.25;;;;;15.78;69.14;101719.66;5079071;27;46344;-69
2022/10/04 10:45:34;;;;;;;;;26.00;23.50;;;;;15.86;68.73;101719.25;5101928;27;45315;-69
2022/10/04 10:48:34;;;;;;;;;30.75;26.25;;;;;15.93;68.64;101725.22;5101943;27;45466;-69
2022/10/04 10:51:02;;;;;;;;;26.25;24.25;;;;;16.00;68.07;101716.69;5101633;27;45441;-69
2022/10/04 10:53:44;;;;;;;;;25.75;25.25;;;;;16.13;67.55;101725.03;5101623;27;45304;-68
2022/10/04 10:56:12;;;;;;;;;30.75;27.50;;;;;16.21;67.21;101717.38;5100508;27;45497;-69
2022/10/04 10:59:04;;;;;;;;;27.00;24.50;;;;;16.35;67.02;101705.78;5101556;27;45314;-70
2022/10/04 11:01:45;;;;;;;;;23.75;23.75;;;;;16.58;67.02;101716.25;5100791;27;45323;-70
2022/10/04 11:04:17;;;;;;;;;25.00;23.25;;;;;16.82;64.77;101711.34;5101213;27;46398;-70
2022/10/04 11:07:01;;;;;;;;;23.50;18.00;;;;;17.09;64.78;101712.47;5101434;27;45459;-69
2022/10/04 11:09:59;;;;;;;;;26.50;26.50;;;;;17.60;63.37;101700.41;5101683;27;45391;-70
2022/10/04 11:12:34;;;;;;;;;29.50;25.50;;;;;18.32;61.92;101715.88;5101433;27;45465;-70
2022/10/04 11:15:37;;;;;;;;;28.75;27.00;;;;;19.00;60.41;101709.72;5101226;27;46310;-70
2022/10/04 11:18:17;;;;;;;;;23.25;23.25;;;;;19.57;57.72;101707.69;5090982;27;45420;-70
2022/10/04 11:21:01;;;;;;;;;25.50;24.00;;;;;20.04;56.47;101720.75;5101728;27;45439;-69
2022/10/04 11:23:41;;;;;;;;;25.00;23.25;;;;;20.35;54.99;101720.34;5096187;27;45537;-69
2022/10/04 11:26:25;;;;;;;;;24.75;23.75;;;;;20.61;53.35;101723.06;5101116;27;46907;-70
2022/10/04 11:29:11;;;;;;;;;21.75;20.75;;;;;20.96;52.24;101710.44;5100826;27;45261;-70
2022/10/04 11:31:39;;;;;;;;;26.00;25.00;;;;;21.32;51.32;101725.97;5101059;27;45327;-70
2022/10/04 11:34:19;;;;;;;;;23.00;23.00;;;;;21.60;51.90;101724.75;5099953;27;45477;-71
2022/10/04 11:37:01;;;;;;;;;18.75;18.75;;;;;21.94;50.21;101714.81;5100886;27;45394;-68
2022/10/04 11:39:43;;;;;;;;;25.00;23.50;;;;;22.74;49.01;101721.16;5100882;27;45370;-70
2022/10/04 11:42:16;;;;;;;;;28.75;26.00;;;;;23.67;47.05;101718.84;5100987;27;45266;-69
2022/10/04 11:45:04;;;;;;;;;30.25;24.00;;;;;24.87;44.67;101720.06;5099203;27;45177;-70
2022/10/04 11:48:14;;;;;;;;;22.25;22.25;;;;;26.10;41.09;101715.91;5100851;27;45309;-69
2022/10/04 11:51:02;;;;;;;;;16.75;16.75;;;;;27.23;38.67;101713.03;5053576;27;45403;-69
2022/10/04 11:53:51;;;;;;;;;19.50;19.25;;;;;28.31;36.87;101713.75;5100775;27;45432;-68
2022/10/04 11:56:45;;;;;;;;;20.75;17.75;;;;;29.54;34.97;101708.59;5100571;27;45389;-68
2022/10/04 11:59:24;;;;;;;;;18.75;16.50;;;;;30.31;32.44;101695.31;5100309;27;45619;-68
2022/10/04 12:02:15;;;;;;;;;14.00;14.00;;;;;31.17;31.56;101698.16;5100763;27;45361;-68
2022/10/04 12:05:20;;;;;;;;;15.50;13.50;;;;;31.88;30.73;101695.09;5100610;27;45248;-68
2022/10/04 12:07:57;;;;;;;;;12.25;11.75;;;;;32.66;28.97;101694.69;5099539;27;45586;-68
2022/10/04 12:10:35;;;;;;;;;10.25;10.25;;;;;33.41;28.82;101691.63;5100368;27;45637;-68
2022/10/04 12:13:21;;;;;;;;;12.75;10.75;;;;;34.00;28.23;101696.94;5100092;27;45370;-67
2022/10/04 12:15:56;;;;;;;;;12.00;12.00;;;;;34.48;26.57;101691.56;5099629;27;45331;-68
2022/10/04 12:18:26;;;;;;;;;11.75;11.75;;;;;34.85;26.14;101696.75;5100047;27;45562;-67
2022/10/04 12:21:09;;;;;;;;;8.75;8.75;;;;;35.20;25.69;101705.03;5100099;27;45419;-68
2022/10/04 12:23:59;;;;;;;;;9.25;8.75;;;;;35.37;25.17;101694.41;5096380;27;45497;-68
2022/10/04 12:26:43;;;;;;;;;11.25;9.50;;;;;35.55;24.62;101689.94;5100293;27;45952;-69
2022/10/04 12:29:33;;;;;;;;;13.00;8.00;;;;;35.79;24.43;101684.84;5099886;27;45425;-68
2022/10/04 12:32:10;;;;;;;;;8.50;8.25;;;;;36.06;25.21;101686.59;5099990;27;45339;-67
2022/10/04 12:34:37;;;;;;;;;12.25;10.50;;;;;36.28;23.71;101674.13;5099958;27;45333;-67
2022/10/04 12:37:20;;;;;;;;;9.25;9.00;;;;;36.13;23.38;101676.28;5100267;27;45364;-67
2022/10/04 12:39:58;;;;;;;;;9.50;8.50;;;;;35.61;24.19;101675.16;5099906;27;45536;-67
2022/10/04 12:42:44;;;;;;;;;8.75;8.75;;;;;35.69;24.28;101664.84;5098730;27;46069;-67
2022/10/04 12:45:42;;;;;;;;;7.25;7.25;;;;;35.94;23.94;101658.44;5086679;27;45320;-68
2022/10/04 12:48:47;;;;;;;;;7.00;7.00;;;;;36.03;24.22;101648.78;5099811;27;45388;-67
2022/10/04 12:51:24;;;;;;;;;6.75;6.75;;;;;35.91;23.78;101644.06;4996786;28;45310;-66
2022/10/04 12:54:00;;;;;;;;;9.00;5.75;;;;;35.60;24.72;101653.03;5088973;27;45359;-67
2022/10/04 12:56:44;;;;;;;;;8.25;8.25;;;;;35.32;24.92;101642.03;5099705;27;45420;-68
2022/10/04 12:59:31;;;;;;;;;10.50;9.00;;;;;35.22;24.94;101652.69;5098910;27;45493;-66
2022/10/04 13:02:14;;;;;;;;;10.00;8.50;;;;;35.09;25.18;101645.16;5099547;27;45454;-68
2022/10/04 13:04:57;;;;;;;;;8.50;8.50;;;;;34.92;25.17;101632.66;5099508;27;46243;-67
2022/10/04 13:07:52;;;;;;;;;7.25;7.25;;;;;35.02;24.59;101635.06;5099610;27;45172;-67
2022/10/04 13:10:30;;;;;;;;;7.75;7.00;;;;;35.13;24.80;101634.47;5099715;27;45268;-67
2022/10/04 13:13:19;;;;;;;;;8.50;6.75;;;;;35.17;25.06;101631.03;5099291;27;45335;-67
2022/10/04 13:16:19;;;;;;;;;8.75;7.00;;;;;35.08;24.99;101634.22;5099199;27;46273;-68
2022/10/04 13:19:04;;;;;;;;;8.50;7.00;;;;;35.10;25.24;101624.59;5099500;27;45372;-68
2022/10/04 13:21:35;;;;;;;;;7.50;7.50;;;;;35.25;25.18;101630.88;5099473;27;45335;-67
2022/10/04 13:24:19;;;;;;;;;11.00;8.50;;;;;35.22;25.11;101627.59;5098959;27;45264;-68
2022/10/04 13:26:59;;;;;;;;;7.00;7.00;;;;;35.34;24.76;101622.31;5099178;27;46656;-68
2022/10/04 13:29:32;;;;;;;;;4.25;4.25;;;;;35.46;24.82;101618.69;5098989;27;45394;-68
2022/10/04 13:32:13;;;;;;;;;7.00;5.50;;;;;35.30;23.83;101613.53;5099419;27;45454;-68
2022/10/04 13:34:41;;;;;;;;;3.00;3.00;;;;;34.80;23.20;101612.03;5100292;27;45446;-68
2022/10/04 13:37:24;;;;;;;;;5.00;3.50;;;;;34.64;23.67;101613.22;5102997;27;46201;-68
2022/10/04 13:39:56;;;;;;;;;4.75;3.25;;;;;34.41;24.82;101610.75;5102834;27;45340;-68
2022/10/04 13:42:47;;;;;;;;;3.33;2.33;;;;;34.64;24.09;101598.44;5102699;27;45350;-68
2022/10/04 13:45:33;;;;;;;;;4.75;4.75;;;;;34.83;23.60;101595.78;5102794;27;45813;-67
2022/10/04 13:48:16;;;;;;;;;4.00;4.00;;;;;34.79;23.83;101588.06;5102577;27;47181;-67
2022/10/04 13:51:16;;;;;;;;;5.50;4.00;;;;;34.95;24.08;101597.97;5102557;27;45357;-67
2022/10/04 13:56:38;;;;;;;;;7.00;5.00;;;;;35.25;24.20;101591.84;5102580;27;45280;-68
2022/10/04 13:59:19;;;;;;;;;6.25;4.50;;;;;35.13;24.40;101579.53;5101963;27;46357;-68
2022/10/04 14:01:48;;;;;;;;;4.25;4.25;;;;;35.11;24.72;101601.22;5102820;27;45651;-68
2022/10/04 14:04:41;;;;;;;;;7.00;5.75;;;;;35.14;24.90;101598.00;5102647;27;45333;-67
2022/10/04 14:07:44;;;;;;;;;5.75;5.25;;;;;34.99;24.36;101588.97;5102317;27;45340;-67
2022/10/04 14:10:46;;;;;;;;;7.00;4.50;;;;;34.05;25.33;101593.38;5101335;27;45420;-68
2022/10/04 14:13:39;;;;;;;;;4.25;3.00;;;;;33.97;25.94;101587.97;5102097;27;45255;-69
2022/10/04 14:16:22;;;;;;;;;5.50;4.50;;;;;33.96;26.34;101580.66;5101717;27;45366;-68
2022/10/04 14:19:09;;;;;;;;;5.00;3.00;;;;;34.05;26.05;101576.66;5101430;27;45619;-67
2022/10/04 14:21:42;;;;;;;;;5.75;4.25;;;;;34.00;25.74;101571.72;5101158;27;45277;-68
2022/10/04 14:24:34;;;;;;;;;3.25;3.25;;;;;34.07;25.69;101578.19;5089618;27;45328;-66
2022/10/04 14:27:36;;;;;;;;;6.00;5.00;;;;;33.50;26.05;101586.72;5097329;27;45408;-68
2022/10/04 14:30:18;;;;;;;;;4.75;4.75;;;;;32.92;27.21;101569.16;5101963;27;45335;-67
2022/10/04 14:33:02;;;;;;;;;4.75;2.50;;;;;33.08;27.59;101583.91;5101245;27;45348;-67
2022/10/04 14:36:19;;;;;;;;;3.00;3.00;;;;;33.11;26.99;101559.34;5102171;27;45384;-68
2022/10/04 14:39:06;;;;;;;;;2.50;2.50;;;;;33.24;26.92;101580.91;5074623;27;45340;-67
2022/10/04 14:42:01;;;;;;;;;2.50;2.50;;;;;32.99;27.08;101583.16;5101845;27;45305;-68
2022/10/04 14:44:32;;;;;;;;;2.75;2.75;;;;;32.67;27.25;101581.66;5100194;27;45480;-68
2022/10/04 14:47:19;;;;;;;;;4.00;4.00;;;;;32.56;28.03;101583.03;5082997;27;45434;-68
2022/10/04 14:49:56;;;;;;;;;4.00;2.25;;;;;32.53;28.22;101577.88;5101775;27;45420;-68
2022/10/04 14:52:59;;;;;;;;;5.50;5.50;;;;;32.55;28.10;101580.47;5101766;27;45405;-67
2022/10/04 14:55:25;;;;;;;;;7.00;4.75;;;;;32.47;28.13;101573.09;5101711;27;45339;-68
2022/10/04 14:58:03;;;;;;;;;4.00;3.00;;;;;32.11;28.06;101572.97;5101256;27;45303;-67
2022/10/04 15:00:46;;;;;;;;;5.00;4.00;;;;;31.23;30.12;101577.44;5101905;27;45414;-67
2022/10/04 15:03:48;;;;;;;;;4.75;4.75;;;;;30.70;30.25;101577.25;5101604;27;45496;-68
2022/10/04 15:06:31;;;;;;;;;3.50;3.50;;;;;30.27;31.06;101584.16;5046988;27;46214;-69
2022/10/04 15:09:05;;;;;;;;;2.50;2.00;;;;;30.04;31.41;101584.03;5101520;27;45288;-69
2022/10/04 15:11:39;;;;;;;;;2.50;2.50;;;;;29.77;32.29;101572.50;5101575;27;45346;-68
2022/10/04 15:14:24;;;;;;;;;5.00;3.25;;;;;29.64;32.44;101553.69;5082184;27;45721;-68
2022/10/04 15:16:58;;;;;;;;;3.00;3.00;;;;;29.28;32.53;101562.28;5101122;27;45320;-69
2022/10/04 15:19:29;;;;;;;;;4.50;3.50;;;;;28.90;33.29;101569.34;5101612;27;45326;-68
2022/10/04 15:21:54;;;;;;;;;7.25;4.00;;;;;28.81;34.16;101572.25;5100562;27;45402;-68
2022/10/04 15:24:28;;;;;;;;;3.50;3.00;;;;;28.65;34.49;101570.28;5082953;27;45511;-68
2022/10/04 15:27:15;;;;;;;;;3.75;3.75;;;;;28.28;34.45;101567.88;5101183;27;46195;-68
2022/10/04 15:30:15;;;;;;;;;3.00;3.00;;;;;28.02;35.44;101564.28;5101125;27;45287;-68
2022/10/04 15:33:08;;;;;;;;;2.50;2.50;;;;;27.53;36.16;101557.53;5044780;27;45435;-68
2022/10/04 15:35:51;;;;;;;;;4.25;2.50;;;;;27.59;35.91;101555.03;5088556;27;45387;-70
2022/10/04 15:38:33;;;;;;;;;3.00;2.75;;;;;27.58;36.33;101534.03;5100787;27;46989;-68
2022/10/04 15:41:07;;;;;;;;;5.00;5.00;;;;;27.49;35.92;101541.31;5100083;27;45353;-69
2022/10/04 15:43:54;;;;;;;;;5.25;4.00;;;;;27.53;36.49;101544.63;5100804;27;45324;-68
2022/10/04 15:46:48;;;;;;;;;2.75;2.75;;;;;27.53;36.33;101535.50;5100871;27;45687;-69
2022/10/04 15:49:36;;;;;;;;;4.00;4.00;;;;;27.48;36.57;101536.84;5100019;27;46376;-68
2022/10/04 15:52:27;;;;;;;;;3.50;3.50;;;;;26.83;37.35;101538.13;5101034;27;45360;-68
2022/10/04 15:55:23;;;;;;;;;2.75;2.75;;;;;26.36;38.63;101543.81;5100908;27;45427;-69
2022/10/04 15:58:14;;;;;;;;;2.00;2.00;;;;;26.05;39.35;101533.22;5099227;27;45319;-68
2022/10/04 16:01:05;;;;;;;;;3.00;3.00;;;;;25.97;39.11;101537.59;5100528;27;46160;-69
2022/10/04 16:03:37;;;;;;;;;3.00;3.00;;;;;25.80;39.72;101537.50;5100775;27;45389;-69
2022/10/04 16:06:20;;;;;;;;;4.25;4.25;;;;;25.54;40.37;101532.63;5100664;27;45305;-69
2022/10/04 16:09:36;;;;;;;;;5.00;3.50;;;;;25.53;40.45;101538.25;5100600;27;45362;-69
2022/10/04 16:12:16;;;;;;;;;4.00;4.00;;;;;25.46;40.70;101540.72;4997587;28;46149;-69
2022/10/04 16:14:58;;;;;;;;;4.00;4.00;;;;;25.26;41.62;101542.63;5098917;27;45335;-67
2022/10/04 16:17:43;;;;;;;;;4.75;3.75;;;;;25.20;41.66;101554.19;5099679;27;45389;-69
2022/10/04 16:20:08;;;;;;;;;3.50;3.50;;;;;24.77;42.35;101565.56;5099535;27;45517;-69
2022/10/04 16:22:37;;;;;;;;;2.00;2.00;;;;;24.55;42.58;101562.19;5099894;27;46141;-69
2022/10/04 16:25:24;;;;;;;;;3.50;3.50;;;;;24.45;43.19;101562.16;5100462;27;45277;-69
2022/10/04 16:28:07;;;;;;;;;4.00;4.00;;;;;24.23;43.33;101540.47;5099783;27;45329;-70
2022/10/04 16:30:32;;;;;;;;;4.00;3.50;;;;;24.11;44.05;101556.97;5100399;27;45241;-69
2022/10/04 16:32:58;;;;;;;;;5.00;3.50;;;;;23.94;44.64;101554.88;5099978;27;46153;-69
2022/10/04 16:35:46;;;;;;;;;5.25;4.00;;;;;23.67;45.05;101560.06;5100450;27;45422;-70
2022/10/04 16:38:11;;;;;;;;;3.00;3.00;;;;;23.48;45.79;101546.25;5100366;27;45268;-68
2022/10/04 16:40:51;;;;;;;;;5.75;3.25;;;;;23.29;46.02;101545.09;5081795;27;47143;-68
2022/10/04 16:43:17;;;;;;;;;3.75;3.75;;;;;23.18;46.28;101552.47;5099642;27;45332;-65
2022/10/04 16:46:13;;;;;;;;;4.00;4.00;;;;;22.93;46.75;101554.59;5100224;27;45214;-65
2022/10/04 16:48:55;;;;;;;;;3.25;3.25;;;;;22.69;47.52;101542.09;5100329;27;45338;-64
2022/10/04 16:51:51;;;;;;;;;4.75;4.25;;;;;22.65;47.35;101555.13;5099199;27;45488;-65
2022/10/04 16:54:47;;;;;;;;;6.00;5.00;;;;;22.51;47.83;101553.56;5099557;27;45775;-64
2022/10/04 16:57:21;;;;;;;;;5.00;5.00;;;;;22.41;48.03;101563.50;5081316;27;45364;-69
2022/10/04 16:59:50;;;;;;;;;5.50;5.50;;;;;22.26;48.47;101554.72;5100226;27;45342;-68
2022/10/04 17:02:33;;;;;;;;;5.00;5.00;;;;;22.25;48.79;101584.91;5099573;27;45500;-65
2022/10/04 17:05:26;;;;;;;;;3.00;3.00;;;;;22.06;49.52;101577.31;5099582;27;45339;-65
2022/10/04 17:08:16;;;;;;;;;5.50;5.50;;;;;21.92;49.80;101580.28;5046777;27;45330;-65
2022/10/04 17:10:44;;;;;;;;;7.00;6.00;;;;;21.88;49.68;101587.81;5098837;27;45396;-65
2022/10/04 17:13:24;;;;;;;;;4.25;4.25;;;;;21.80;50.02;101593.03;5098946;27;45320;-65
2022/10/04 17:16:10;;;;;;;;;8.50;6.50;;;;;21.73;50.33;101605.44;5077543;27;46818;-65
2022/10/04 17:19:12;;;;;;;;;6.25;6.25;;;;;21.63;50.77;101598.06;5093196;27;45481;-66
2022/10/04 17:21:48;;;;;;;;;5.50;5.50;;;;;21.57;51.62;101613.09;5098338;27;45410;-65
2022/10/04 17:24:38;;;;;;;;;6.00;6.00;;;;;21.42;51.47;101615.16;5087085;27;45237;-65
2022/10/04 17:27:21;;;;;;;;;6.25;6.25;;;;;21.35;51.70;101613.03;5099255;27;45490;-66
2022/10/04 17:30:22;;;;;;;;;5.00;5.00;;;;;21.31;52.40;101620.56;5099114;27;45385;-66
2022/10/04 17:33:01;;;;;;;;;5.50;5.50;;;;;21.23;52.42;101619.41;4996507;28;45316;-66
2022/10/04 17:35:51;;;;;;;;;8.00;6.50;;;;;21.25;51.88;101623.78;5086615;27;45395;-66
2022/10/04 17:39:01;;;;;;;;;5.25;5.25;;;;;21.20;52.53;101615.06;5099097;27;45324;-66
2022/10/04 17:41:39;;;;;;;;;7.00;7.00;;;;;21.14;52.57;101615.50;5059171;27;45394;-66
2022/10/04 17:44:40;;;;;;;;;6.50;6.50;;;;;20.97;53.38;101615.91;5098987;27;45350;-67
2022/10/04 17:47:18;;;;;;;;;6.25;6.25;;;;;20.93;53.36;101617.09;5099344;27;45542;-65
2022/10/04 17:55:47;;;;;;;;;8.00;7.75;;;;;20.74;53.61;101609.47;5095777;27;45443;-67
2022/10/04 17:58:21;;;;;;;;;7.00;6.00;;;;;20.73;54.02;101615.91;5096007;27;45579;-67
2022/10/04 18:01:00;;;;;;;;;5.75;5.00;;;;;20.69;54.01;101620.69;5098353;27;45337;-66
2022/10/04 18:03:36;;;;;;;;;8.00;6.75;;;;;20.66;54.13;101614.63;5090497;27;45296;-67
2022/10/04 18:06:16;;;;;;;;;7.00;7.00;;;;;20.62;54.40;101611.22;5094427;27;45362;-64
2022/10/04 18:09:29;;;;;;;;;8.00;6.50;;;;;20.65;54.23;101612.88;5091507;27;45451;-65
2022/10/04 18:12:18;;;;;;;;;6.00;6.00;;;;;20.55;54.35;101599.06;5032149;28;45400;-60